createdAt,value
2023-04-12T05:44:56.173Z,100120.03
2023-04-12T05:47:23.909Z,100109.50
2023-04-12T05:49:51.045Z,100107.56
2023-04-12T05:52:18.606Z,100106.34
2023-04-12T05:54:45.990Z,100094.72
2023-04-12T05:57:17.916Z,100096.50
2023-04-12T05:59:47.628Z,100086.66
2023-04-12T06:02:14.826Z,100083.81
2023-04-12T06:04:50.167Z,100073.88
2023-04-12T06:07:19.717Z,100076.06
2023-04-12T06:09:47.459Z,100080.41
2023-04-12T06:12:14.853Z,100075.03
2023-04-12T06:14:41.589Z,100063.50
2023-04-12T06:17:08.853Z,100064.25
2023-04-12T06:19:36.100Z,100056.13
2023-04-12T06:22:02.966Z,100049.47
2023-04-12T06:24:31.733Z,100048.88
2023-04-12T06:26:58.671Z,100043.28
2023-04-12T06:29:26.332Z,100041.16
2023-04-12T06:31:53.327Z,100035.47
2023-04-12T06:34:20.172Z,100026.47
2023-04-12T06:36:47.972Z,100024.09
2023-04-12T06:39:16.458Z,100019.66
2023-04-12T06:41:47.702Z,100021.16
2023-04-12T06:44:19.716Z,100023.34
2023-04-12T06:46:46.813Z,100017.31
2023-04-12T06:49:13.615Z,100016.28
2023-04-12T06:51:40.398Z,100009.81
2023-04-12T06:54:07.153Z,100014.22
2023-04-12T06:56:34.838Z,100001.25
2023-04-12T06:59:01.694Z,100009.06
2023-04-12T07:01:31.868Z,100009.63
2023-04-12T07:03:58.817Z,100010.03
2023-04-12T07:06:26.388Z,100006.19
2023-04-12T07:08:53.273Z,100007.69
2023-04-12T07:11:22.969Z,99992.69
2023-04-12T07:13:50.459Z,100007.59
2023-04-12T07:16:17.988Z,99994.88
2023-04-12T07:18:44.872Z,99998.03
2023-04-12T07:21:14.664Z,99995.22
2023-04-12T07:23:41.535Z,99987.47
2023-04-12T07:26:08.321Z,99982.78
2023-04-12T07:28:36.512Z,99990.03
2023-04-12T09:01:34.898Z,99852.63
2023-04-12T09:04:06.921Z,99850.50
2023-04-12T09:06:34.154Z,99841.88
2023-04-12T09:09:01.669Z,99846.03
2023-04-12T09:11:28.893Z,99839.69
2023-04-12T09:13:58.476Z,99832.69
2023-04-12T09:16:39.797Z,99829.06
2023-04-12T09:19:06.663Z,99823.19
2023-04-12T09:21:34.997Z,99822.50
2023-04-12T09:24:11.601Z,99819.44
2023-04-12T09:26:40.458Z,99826.91
2023-04-12T09:29:22.011Z,99812.94
2023-04-12T09:32:08.476Z,99806.66
2023-04-12T09:34:36.445Z,99805.44
2023-04-12T09:37:13.830Z,99796.09
2023-04-12T09:39:41.039Z,99790.09
2023-04-12T09:42:25.028Z,99781.19
2023-04-12T09:44:57.704Z,99778.09
2023-04-12T09:47:38.211Z,99782.38
2023-04-12T09:50:07.505Z,99779.59
2023-04-12T09:52:38.917Z,99772.50
2023-04-12T09:55:11.121Z,99763.56
2023-04-12T09:57:43.703Z,99768.53
2023-04-12T10:00:18.101Z,99755.03
2023-04-12T10:02:47.710Z,99752.59
2023-04-12T10:05:17.487Z,99750.28
2023-04-12T10:07:45.161Z,99745.59
2023-04-12T10:10:13.270Z,99740.16
2023-04-12T10:12:41.562Z,99738.56
2023-04-12T10:15:18.071Z,99728.56
2023-04-12T10:17:51.542Z,99720.13
2023-04-12T10:20:19.346Z,99709.59
2023-04-12T10:22:48.531Z,99708.63
2023-04-12T10:25:18.403Z,99699.19
2023-04-12T10:27:46.248Z,99694.41
2023-04-12T10:30:30.148Z,99683.22
2023-04-12T10:33:03.182Z,99676.31
2023-04-12T10:35:31.620Z,99684.16
2023-04-12T10:38:03.198Z,99668.34
2023-04-12T10:40:31.868Z,99660.59
2023-04-12T10:43:23.620Z,99651.25
2023-04-12T10:45:50.697Z,99640.09
2023-04-12T10:48:32.195Z,99640.59
2023-04-12T10:51:25.510Z,99644.78
2023-04-12T10:53:54.174Z,99636.38
2023-04-12T10:56:32.669Z,99645.47
2023-04-12T10:59:04.497Z,99639.31
2023-04-12T11:02:03.234Z,99630.09
2023-04-12T11:04:30.427Z,99634.72
2023-04-12T11:07:07.542Z,99616.63
2023-04-12T11:10:01.814Z,99611.03
2023-04-12T11:12:34.211Z,99614.00
2023-04-12T11:15:02.346Z,99611.38
2023-04-12T11:17:57.452Z,99604.41
2023-04-12T11:20:27.278Z,99597.59
2023-04-12T11:22:55.065Z,99591.00
2023-04-12T11:25:24.417Z,99587.34
2023-04-12T11:27:51.969Z,99595.47
2023-04-12T11:30:20.111Z,99583.00
2023-04-12T11:32:47.816Z,99575.97
2023-04-12T11:35:16.381Z,99580.84
2023-04-12T11:37:44.289Z,99572.84
2023-04-12T11:40:11.512Z,99572.53
2023-04-12T11:42:39.956Z,99554.81
2023-04-12T11:45:15.774Z,99560.41
2023-04-12T11:47:46.628Z,99570.53
2023-04-12T11:50:13.625Z,99560.78
2023-04-12T11:52:41.516Z,99554.56
2023-04-12T11:55:11.366Z,99535.91
2023-04-12T11:57:39.083Z,99540.69
2023-04-12T12:00:07.017Z,99531.47
2023-04-12T12:02:46.665Z,99536.78
2023-04-12T12:05:23.837Z,99532.13
2023-04-12T12:07:52.853Z,99530.97
2023-04-12T12:10:36.570Z,99516.25
2023-04-12T12:13:13.730Z,99515.41
2023-04-12T12:15:45.215Z,99510.00
2023-04-12T12:18:12.199Z,99502.28
2023-04-12T12:20:57.105Z,99495.13
2023-04-12T12:23:31.157Z,99499.09
2023-04-12T12:26:14.194Z,99473.28
2023-04-12T12:28:49.812Z,99479.53
2023-04-12T12:31:20.575Z,99477.91
2023-04-12T12:33:47.780Z,99471.56
2023-04-12T12:36:18.774Z,99460.00
2023-04-12T12:38:45.755Z,99446.88
2023-04-12T12:41:23.576Z,99442.88
2023-04-12T12:43:52.338Z,99454.22
2023-04-12T12:46:20.460Z,99450.13
2023-04-12T12:48:48.240Z,99446.47
2023-04-12T12:51:20.020Z,99428.44
2023-04-12T12:53:47.054Z,99433.06
2023-04-12T12:56:14.604Z,99424.22
2023-04-12T12:58:42.275Z,99430.19
2023-04-12T13:01:09.223Z,99428.84
2023-04-12T13:03:36.413Z,99425.66
2023-04-12T13:06:03.394Z,99422.13
2023-04-12T13:08:34.603Z,99424.28
2023-04-12T13:11:01.396Z,99417.78
2023-04-12T13:13:28.202Z,99420.09
2023-04-12T13:15:55.048Z,99418.72
2023-04-12T13:18:21.846Z,99402.19
2023-04-12T13:20:48.580Z,99401.69
2023-04-12T13:23:15.525Z,99394.81
2023-04-12T13:25:42.262Z,99388.16
2023-04-12T13:28:09.030Z,99387.31
2023-04-12T13:30:36.261Z,99382.13
2023-04-12T13:33:03.227Z,99375.47
2023-04-12T13:35:30.189Z,99365.84
2023-04-12T13:37:56.960Z,99377.09
2023-04-12T13:40:23.841Z,99364.25
2023-04-12T13:42:50.621Z,99355.22
2023-04-12T13:45:17.408Z,99366.22
2023-04-12T13:47:44.233Z,99356.81
2023-04-12T13:50:11.251Z,99344.25
2023-04-12T13:52:38.040Z,99332.03
2023-04-12T13:55:08.551Z,99341.03
2023-04-12T13:57:36.086Z,99333.53
2023-04-12T14:00:02.894Z,99342.31
2023-04-12T14:02:32.113Z,99331.66
2023-04-12T14:05:00.129Z,99327.69
2023-04-12T14:07:28.919Z,99323.81
2023-04-12T14:09:57.589Z,99320.31
2023-04-12T14:12:24.362Z,99310.38
2023-04-12T14:14:51.154Z,99317.53
2023-04-12T14:17:18.068Z,99305.41
2023-04-12T14:19:44.869Z,99301.66
2023-04-12T14:22:11.610Z,99306.16
2023-04-12T14:24:38.698Z,99303.91
2023-04-12T14:27:05.711Z,99299.28
2023-04-12T14:29:32.529Z,99299.50
2023-04-12T14:31:59.290Z,99297.47
2023-04-12T14:34:26.197Z,99290.53
2023-04-12T14:36:52.923Z,99300.84
2023-04-12T14:39:19.767Z,99289.56
2023-04-12T14:41:46.522Z,99285.81
2023-04-12T14:44:13.296Z,99290.38
2023-04-12T14:46:40.135Z,99290.16
2023-04-12T14:49:07.184Z,99298.69
2023-04-12T14:51:34.089Z,99291.66
2023-04-12T14:54:01.156Z,99284.69
2023-04-12T14:56:30.436Z,99283.28
2023-04-12T14:58:58.321Z,99284.97
2023-04-12T15:01:25.921Z,99284.44
2023-04-12T15:03:53.709Z,99288.16
2023-04-12T15:06:24.056Z,99288.31
2023-04-12T15:08:54.640Z,99302.38
2023-04-12T15:11:27.255Z,99288.75
2023-04-12T15:13:55.432Z,99294.38
2023-04-12T15:16:22.763Z,99298.59
2023-04-12T15:18:50.745Z,99290.13
2023-04-12T15:21:17.736Z,99288.06
2023-04-12T15:23:45.136Z,99289.88
2023-04-12T15:26:14.391Z,99280.19
2023-04-12T15:28:41.982Z,99284.09
2023-04-12T15:31:09.679Z,99291.97
2023-04-12T15:33:37.457Z,99313.59
2023-04-12T15:36:05.243Z,99305.41
2023-04-12T15:38:32.187Z,99300.13
2023-04-12T15:41:00.778Z,99298.78
2023-04-12T15:43:28.274Z,99300.78
2023-04-12T15:45:55.164Z,99306.13
2023-04-12T15:48:23.317Z,99311.91
2023-04-12T15:50:51.150Z,99307.31
2023-04-12T15:53:20.116Z,99316.72
2023-04-12T15:55:47.367Z,99303.25
2023-04-12T15:58:14.780Z,99312.22
2023-04-12T16:00:42.625Z,99308.88
2023-04-12T16:03:09.761Z,99300.88
2023-04-12T16:05:36.825Z,99309.69
2023-04-12T16:08:04.008Z,99305.34
2023-04-12T16:10:30.889Z,99302.97
2023-04-12T16:13:00.590Z,99309.44
2023-04-12T16:15:27.454Z,99312.09
2023-04-12T16:17:55.810Z,99304.66
2023-04-12T16:20:23.401Z,99300.91
2023-04-12T16:22:54.645Z,99301.47
2023-04-12T16:25:23.077Z,99302.03
2023-04-12T16:27:50.621Z,99292.91
2023-04-12T16:30:17.698Z,99296.13
2023-04-12T16:32:46.876Z,99292.50
2023-04-12T16:35:15.088Z,99285.94
2023-04-12T16:37:43.086Z,99275.13
2023-04-12T16:40:12.675Z,99282.28
2023-04-12T16:42:44.146Z,99270.66
2023-04-12T16:45:14.078Z,99275.56
2023-04-12T16:47:41.156Z,99270.50
2023-04-12T16:50:12.944Z,99272.75
2023-04-12T16:52:41.709Z,99274.28
2023-04-12T16:55:12.198Z,99268.97
2023-04-12T16:57:42.959Z,99271.34
2023-04-12T17:00:29.477Z,99267.28
2023-04-12T17:02:56.366Z,99268.56
2023-04-12T17:05:24.905Z,99251.72
2023-04-12T17:07:54.522Z,99253.13
2023-04-12T17:10:22.848Z,99254.13
2023-04-12T17:12:51.665Z,99246.97
2023-04-12T17:15:21.165Z,99247.25
2023-04-12T17:17:49.635Z,99246.41
2023-04-12T17:20:17.604Z,99251.31
2023-04-12T17:22:45.176Z,99246.41
2023-04-12T17:25:12.651Z,99247.25
2023-04-12T17:27:40.601Z,99249.22
2023-04-12T17:30:10.864Z,99246.41
2023-04-12T17:32:38.593Z,99245.97
2023-04-12T17:35:07.061Z,99246.13
2023-04-12T17:37:37.454Z,99251.44
2023-04-12T17:40:05.634Z,99251.69
2023-04-12T17:42:32.714Z,99259.78
2023-04-12T17:44:59.553Z,99247.81
2023-04-12T17:47:26.370Z,99245.28
2023-04-12T17:49:53.197Z,99245.53
2023-04-12T17:52:20.094Z,99247.25
2023-04-12T17:54:47.270Z,99245.81
2023-04-12T17:57:14.127Z,99235.16
2023-04-12T17:59:40.948Z,99246.78
2023-04-12T18:02:07.763Z,99245.25
2023-04-12T18:04:34.848Z,99242.16
2023-04-12T18:07:01.923Z,99235.03
2023-04-12T18:09:28.776Z,99227.88
2023-04-12T18:11:55.648Z,99229.00
2023-04-12T18:14:22.522Z,99238.09
2023-04-12T18:16:49.484Z,99242.72
2023-04-12T18:19:19.058Z,99243.25
2023-04-12T18:21:48.831Z,99239.78
2023-04-12T18:24:17.124Z,99237.88
2023-04-12T18:26:45.316Z,99236.88
2023-04-12T18:29:14.568Z,99245.84
2023-04-12T18:31:41.823Z,99239.25
2023-04-12T18:34:09.034Z,99245.94
2023-04-12T18:36:39.648Z,99245.53
2023-04-12T18:39:08.182Z,99232.38
2023-04-12T18:41:34.981Z,99237.53
2023-04-12T18:44:01.912Z,99229.81
2023-04-12T18:46:29.789Z,99227.88
2023-04-12T18:48:57.058Z,99233.19
2023-04-12T18:51:24.476Z,99223.38
